sensor_id;sensor_type;location;lat;lon;timestamp;P1;durP1;ratioP1;P2;durP2;ratioP2
20012;SDS011;10167;42.852;23.042;2022-10-22T00:00:37;1.30;;;1.23;;
20012;SDS011;10167;42.852;23.042;2022-10-22T00:03:07;4.35;;;1.20;;
20012;SDS011;10167;42.852;23.042;2022-10-22T00:05:37;2.25;;;1.48;;
20012;SDS011;10167;42.852;23.042;2022-10-22T00:08:06;4.82;;;2.28;;
20012;SDS011;10167;42.852;23.042;2022-10-22T00:10:36;3.13;;;1.77;;
20012;SDS011;10167;42.852;23.042;2022-10-22T00:13:05;1.42;;;1.17;;
20012;SDS011;10167;42.852;23.042;2022-10-22T00:15:34;5.97;;;1.42;;
20012;SDS011;10167;42.852;23.042;2022-10-22T00:18:03;3.97;;;2.92;;
20012;SDS011;10167;42.852;23.042;2022-10-22T00:20:33;1.80;;;1.35;;
20012;SDS011;10167;42.852;23.042;2022-10-22T00:23:02;1.75;;;1.65;;
20012;SDS011;10167;42.852;23.042;2022-10-22T00:25:35;1.25;;;1.15;;
20012;SDS011;10167;42.852;23.042;2022-10-22T00:28:04;1.85;;;1.38;;
20012;SDS011;10167;42.852;23.042;2022-10-22T00:30:33;2.40;;;1.20;;
20012;SDS011;10167;42.852;23.042;2022-10-22T00:33:01;1.35;;;1.05;;
20012;SDS011;10167;42.852;23.042;2022-10-22T00:35:30;2.15;;;1.70;;
20012;SDS011;10167;42.852;23.042;2022-10-22T00:38:01;1.58;;;1.48;;
20012;SDS011;10167;42.852;23.042;2022-10-22T00:40:30;1.33;;;1.23;;
20012;SDS011;10167;42.852;23.042;2022-10-22T00:42:59;2.03;;;1.85;;
20012;SDS011;10167;42.852;23.042;2022-10-22T00:45:29;1.13;;;0.82;;
20012;SDS011;10167;42.852;23.042;2022-10-22T00:47:59;1.98;;;1.80;;
20012;SDS011;10167;42.852;23.042;2022-10-22T00:50:30;2.40;;;1.63;;
20012;SDS011;10167;42.852;23.042;2022-10-22T00:53:02;10.90;;;1.80;;
20012;SDS011;10167;42.852;23.042;2022-10-22T00:55:31;2.00;;;1.50;;
20012;SDS011;10167;42.852;23.042;2022-10-22T00:58:00;1.48;;;1.38;;
20012;SDS011;10167;42.852;23.042;2022-10-22T01:00:29;9.15;;;2.53;;
20012;SDS011;10167;42.852;23.042;2022-10-22T01:02:59;2.00;;;1.48;;
20012;SDS011;10167;42.852;23.042;2022-10-22T01:05:28;1.80;;;1.65;;
20012;SDS011;10167;42.852;23.042;2022-10-22T01:07:58;3.80;;;1.40;;
20012;SDS011;10167;42.852;23.042;2022-10-22T01:10:33;2.03;;;1.58;;
20012;SDS011;10167;42.852;23.042;2022-10-22T01:13:08;3.55;;;2.33;;
20012;SDS011;10167;42.852;23.042;2022-10-22T01:15:40;2.60;;;1.25;;
20012;SDS011;10167;42.852;23.042;2022-10-22T01:18:13;3.20;;;1.75;;
20012;SDS011;10167;42.852;23.042;2022-10-22T01:20:46;2.15;;;1.50;;
20012;SDS011;10167;42.852;23.042;2022-10-22T01:23:21;1.27;;;1.17;;
20012;SDS011;10167;42.852;23.042;2022-10-22T01:25:55;1.17;;;0.40;;
20012;SDS011;10167;42.852;23.042;2022-10-22T01:28:35;8.02;;;2.90;;
20012;SDS011;10167;42.852;23.042;2022-10-22T01:31:04;2.75;;;2.55;;
20012;SDS011;10167;42.852;23.042;2022-10-22T01:33:34;2.67;;;2.35;;
20012;SDS011;10167;42.852;23.042;2022-10-22T01:36:04;4.90;;;2.10;;
20012;SDS011;10167;42.852;23.042;2022-10-22T01:38:33;2.80;;;2.50;;
20012;SDS011;10167;42.852;23.042;2022-10-22T01:41:03;3.53;;;2.08;;
20012;SDS011;10167;42.852;23.042;2022-10-22T01:43:32;2.03;;;1.83;;
20012;SDS011;10167;42.852;23.042;2022-10-22T01:46:04;4.63;;;2.53;;
20012;SDS011;10167;42.852;23.042;2022-10-22T01:48:34;4.25;;;2.75;;
20012;SDS011;10167;42.852;23.042;2022-10-22T01:51:16;1.02;;;0.98;;
20012;SDS011;10167;42.852;23.042;2022-10-22T01:53:48;3.60;;;2.78;;
20012;SDS011;10167;42.852;23.042;2022-10-22T01:56:25;8.07;;;3.10;;
20012;SDS011;10167;42.852;23.042;2022-10-22T01:58:57;2.33;;;2.13;;
20012;SDS011;10167;42.852;23.042;2022-10-22T02:01:34;2.00;;;1.77;;
20012;SDS011;10167;42.852;23.042;2022-10-22T02:04:05;6.22;;;3.30;;
20012;SDS011;10167;42.852;23.042;2022-10-22T02:06:35;5.03;;;1.88;;
20012;SDS011;10167;42.852;23.042;2022-10-22T02:09:05;3.30;;;3.00;;
20012;SDS011;10167;42.852;23.042;2022-10-22T02:11:35;3.70;;;1.88;;
20012;SDS011;10167;42.852;23.042;2022-10-22T02:14:05;1.00;;;0.90;;
20012;SDS011;10167;42.852;23.042;2022-10-22T02:16:37;2.10;;;1.83;;
20012;SDS011;10167;42.852;23.042;2022-10-22T02:19:09;23.20;;;4.13;;
20012;SDS011;10167;42.852;23.042;2022-10-22T02:21:41;4.68;;;2.65;;
20012;SDS011;10167;42.852;23.042;2022-10-22T02:24:12;4.50;;;2.63;;
20012;SDS011;10167;42.852;23.042;2022-10-22T02:26:42;3.83;;;3.50;;
20012;SDS011;10167;42.852;23.042;2022-10-22T02:29:13;1.83;;;1.60;;
20012;SDS011;10167;42.852;23.042;2022-10-22T02:31:44;2.22;;;2.03;;
20012;SDS011;10167;42.852;23.042;2022-10-22T02:34:15;1.85;;;1.75;;
20012;SDS011;10167;42.852;23.042;2022-10-22T02:36:45;3.13;;;2.30;;
20012;SDS011;10167;42.852;23.042;2022-10-22T02:39:16;2.10;;;2.00;;
20012;SDS011;10167;42.852;23.042;2022-10-22T02:41:46;1.65;;;1.55;;
20012;SDS011;10167;42.852;23.042;2022-10-22T02:44:19;0.85;;;0.85;;
20012;SDS011;10167;42.852;23.042;2022-10-22T02:46:50;4.25;;;1.50;;
20012;SDS011;10167;42.852;23.042;2022-10-22T02:49:19;2.70;;;1.58;;
20012;SDS011;10167;42.852;23.042;2022-10-22T02:51:48;3.70;;;3.28;;
20012;SDS011;10167;42.852;23.042;2022-10-22T02:54:17;1.05;;;1.05;;
20012;SDS011;10167;42.852;23.042;2022-10-22T02:56:46;1.70;;;1.40;;
20012;SDS011;10167;42.852;23.042;2022-10-22T02:59:15;2.53;;;1.17;;
20012;SDS011;10167;42.852;23.042;2022-10-22T03:01:45;2.00;;;1.20;;
20012;SDS011;10167;42.852;23.042;2022-10-22T03:04:15;1.70;;;1.48;;
20012;SDS011;10167;42.852;23.042;2022-10-22T03:06:44;6.07;;;2.88;;
20012;SDS011;10167;42.852;23.042;2022-10-22T03:09:15;1.42;;;1.33;;
20012;SDS011;10167;42.852;23.042;2022-10-22T03:11:49;4.13;;;1.33;;
20012;SDS011;10167;42.852;23.042;2022-10-22T03:14:18;2.17;;;1.98;;
20012;SDS011;10167;42.852;23.042;2022-10-22T03:16:48;4.45;;;1.65;;
20012;SDS011;10167;42.852;23.042;2022-10-22T03:19:18;1.15;;;1.15;;
20012;SDS011;10167;42.852;23.042;2022-10-22T03:21:51;1.52;;;1.45;;
20012;SDS011;10167;42.852;23.042;2022-10-22T03:24:22;1.45;;;1.42;;
20012;SDS011;10167;42.852;23.042;2022-10-22T03:26:53;4.65;;;1.95;;
20012;SDS011;10167;42.852;23.042;2022-10-22T03:29:22;11.52;;;2.80;;
20012;SDS011;10167;42.852;23.042;2022-10-22T03:31:53;1.45;;;1.42;;
20012;SDS011;10167;42.852;23.042;2022-10-22T03:34:25;2.83;;;2.55;;
20012;SDS011;10167;42.852;23.042;2022-10-22T03:36:53;3.33;;;3.08;;
20012;SDS011;10167;42.852;23.042;2022-10-22T03:39:23;1.27;;;1.23;;
20012;SDS011;10167;42.852;23.042;2022-10-22T03:41:53;3.30;;;1.70;;
20012;SDS011;10167;42.852;23.042;2022-10-22T03:44:22;3.45;;;1.05;;
20012;SDS011;10167;42.852;23.042;2022-10-22T03:46:51;7.15;;;3.63;;
20012;SDS011;10167;42.852;23.042;2022-10-22T03:49:27;3.42;;;1.75;;
20012;SDS011;10167;42.852;23.042;2022-10-22T03:51:57;2.90;;;2.50;;
20012;SDS011;10167;42.852;23.042;2022-10-22T03:54:25;3.67;;;2.38;;
20012;SDS011;10167;42.852;23.042;2022-10-22T03:56:54;2.45;;;2.25;;
20012;SDS011;10167;42.852;23.042;2022-10-22T03:59:23;1.60;;;1.40;;
20012;SDS011;10167;42.852;23.042;2022-10-22T04:01:52;3.63;;;2.67;;
20012;SDS011;10167;42.852;23.042;2022-10-22T04:04:21;3.92;;;3.22;;
20012;SDS011;10167;42.852;23.042;2022-10-22T04:06:53;4.22;;;2.63;;
20012;SDS011;10167;42.852;23.042;2022-10-22T04:09:23;1.83;;;1.40;;
20012;SDS011;10167;42.852;23.042;2022-10-22T04:11:52;1.77;;;1.67;;
20012;SDS011;10167;42.852;23.042;2022-10-22T04:14:21;2.47;;;1.30;;
20012;SDS011;10167;42.852;23.042;2022-10-22T04:16:49;1.52;;;1.45;;
20012;SDS011;10167;42.852;23.042;2022-10-22T04:19:19;2.05;;;1.88;;
20012;SDS011;10167;42.852;23.042;2022-10-22T04:21:48;2.38;;;2.17;;
20012;SDS011;10167;42.852;23.042;2022-10-22T04:24:18;0.57;;;0.57;;
20012;SDS011;10167;42.852;23.042;2022-10-22T04:26:48;2.47;;;2.28;;
20012;SDS011;10167;42.852;23.042;2022-10-22T04:29:16;1.35;;;1.25;;
20012;SDS011;10167;42.852;23.042;2022-10-22T04:31:45;2.83;;;1.58;;
20012;SDS011;10167;42.852;23.042;2022-10-22T04:34:14;11.43;;;4.80;;
20012;SDS011;10167;42.852;23.042;2022-10-22T04:36:43;3.00;;;2.63;;
20012;SDS011;10167;42.852;23.042;2022-10-22T04:39:13;15.88;;;3.42;;
20012;SDS011;10167;42.852;23.042;2022-10-22T04:41:43;16.67;;;4.30;;
20012;SDS011;10167;42.852;23.042;2022-10-22T04:44:12;13.43;;;5.05;;
20012;SDS011;10167;42.852;23.042;2022-10-22T04:46:44;11.32;;;4.53;;
20012;SDS011;10167;42.852;23.042;2022-10-22T04:49:12;3.33;;;3.03;;
20012;SDS011;10167;42.852;23.042;2022-10-22T04:51:41;3.08;;;2.42;;
20012;SDS011;10167;42.852;23.042;2022-10-22T04:54:10;7.05;;;2.80;;
20012;SDS011;10167;42.852;23.042;2022-10-22T04:56:42;14.98;;;7.10;;
20012;SDS011;10167;42.852;23.042;2022-10-22T04:59:11;12.40;;;8.35;;
20012;SDS011;10167;42.852;23.042;2022-10-22T05:01:42;8.30;;;5.18;;
20012;SDS011;10167;42.852;23.042;2022-10-22T05:04:12;5.90;;;3.47;;
20012;SDS011;10167;42.852;23.042;2022-10-22T05:06:41;2.78;;;2.55;;
20012;SDS011;10167;42.852;23.042;2022-10-22T05:09:11;3.50;;;2.83;;
20012;SDS011;10167;42.852;23.042;2022-10-22T05:11:41;1.15;;;1.15;;
20012;SDS011;10167;42.852;23.042;2022-10-22T05:14:14;4.30;;;3.30;;
20012;SDS011;10167;42.852;23.042;2022-10-22T05:16:43;3.28;;;2.97;;
20012;SDS011;10167;42.852;23.042;2022-10-22T05:19:17;2.47;;;2.28;;
20012;SDS011;10167;42.852;23.042;2022-10-22T05:21:46;1.92;;;1.83;;
20012;SDS011;10167;42.852;23.042;2022-10-22T05:24:14;9.63;;;2.95;;
20012;SDS011;10167;42.852;23.042;2022-10-22T05:26:43;2.78;;;2.58;;
20012;SDS011;10167;42.852;23.042;2022-10-22T05:29:14;1.52;;;1.42;;
20012;SDS011;10167;42.852;23.042;2022-10-22T05:31:43;2.92;;;2.72;;
20012;SDS011;10167;42.852;23.042;2022-10-22T05:34:11;1.35;;;1.10;;
20012;SDS011;10167;42.852;23.042;2022-10-22T05:36:40;4.18;;;2.30;;
20012;SDS011;10167;42.852;23.042;2022-10-22T05:39:22;1.90;;;1.75;;
20012;SDS011;10167;42.852;23.042;2022-10-22T05:41:51;3.10;;;2.60;;
20012;SDS011;10167;42.852;23.042;2022-10-22T05:44:21;2.58;;;2.33;;
20012;SDS011;10167;42.852;23.042;2022-10-22T05:46:50;2.97;;;2.78;;
20012;SDS011;10167;42.852;23.042;2022-10-22T05:49:19;3.05;;;2.42;;
20012;SDS011;10167;42.852;23.042;2022-10-22T05:51:48;2.88;;;1.63;;
20012;SDS011;10167;42.852;23.042;2022-10-22T05:54:17;3.05;;;2.22;;
20012;SDS011;10167;42.852;23.042;2022-10-22T05:56:48;3.03;;;2.72;;
20012;SDS011;10167;42.852;23.042;2022-10-22T05:59:17;5.25;;;3.70;;
20012;SDS011;10167;42.852;23.042;2022-10-22T06:01:47;5.80;;;3.30;;
20012;SDS011;10167;42.852;23.042;2022-10-22T06:04:17;4.55;;;2.33;;
20012;SDS011;10167;42.852;23.042;2022-10-22T06:06:46;3.65;;;2.72;;
20012;SDS011;10167;42.852;23.042;2022-10-22T06:09:16;6.00;;;3.67;;
20012;SDS011;10167;42.852;23.042;2022-10-22T06:11:46;5.03;;;2.72;;
20012;SDS011;10167;42.852;23.042;2022-10-22T06:14:15;6.95;;;2.55;;
20012;SDS011;10167;42.852;23.042;2022-10-22T06:16:47;8.30;;;5.57;;
20012;SDS011;10167;42.852;23.042;2022-10-22T06:19:17;12.10;;;7.10;;
20012;SDS011;10167;42.852;23.042;2022-10-22T06:21:47;23.00;;;5.43;;
20012;SDS011;10167;42.852;23.042;2022-10-22T06:24:18;10.85;;;7.13;;
20012;SDS011;10167;42.852;23.042;2022-10-22T06:26:48;9.57;;;4.60;;
20012;SDS011;10167;42.852;23.042;2022-10-22T06:29:18;12.27;;;6.43;;
20012;SDS011;10167;42.852;23.042;2022-10-22T06:31:48;9.77;;;6.97;;
20012;SDS011;10167;42.852;23.042;2022-10-22T06:34:17;15.95;;;5.20;;
20012;SDS011;10167;42.852;23.042;2022-10-22T06:36:47;4.47;;;3.95;;
20012;SDS011;10167;42.852;23.042;2022-10-22T06:39:17;5.65;;;2.60;;
20012;SDS011;10167;42.852;23.042;2022-10-22T06:41:46;5.65;;;2.38;;
20012;SDS011;10167;42.852;23.042;2022-10-22T06:44:17;6.32;;;2.70;;
20012;SDS011;10167;42.852;23.042;2022-10-22T06:46:49;2.80;;;2.55;;
20012;SDS011;10167;42.852;23.042;2022-10-22T06:49:19;3.35;;;2.65;;
20012;SDS011;10167;42.852;23.042;2022-10-22T06:51:48;2.30;;;2.13;;
20012;SDS011;10167;42.852;23.042;2022-10-22T06:54:17;11.38;;;3.38;;
20012;SDS011;10167;42.852;23.042;2022-10-22T06:57:00;3.93;;;3.07;;
20012;SDS011;10167;42.852;23.042;2022-10-22T06:59:28;2.85;;;2.38;;
20012;SDS011;10167;42.852;23.042;2022-10-22T07:01:59;5.35;;;3.50;;
20012;SDS011;10167;42.852;23.042;2022-10-22T07:04:28;3.38;;;2.85;;
20012;SDS011;10167;42.852;23.042;2022-10-22T07:06:58;5.32;;;3.63;;
20012;SDS011;10167;42.852;23.042;2022-10-22T07:09:26;3.60;;;3.15;;
20012;SDS011;10167;42.852;23.042;2022-10-22T07:11:56;8.63;;;5.40;;
20012;SDS011;10167;42.852;23.042;2022-10-22T07:14:30;8.65;;;4.40;;
20012;SDS011;10167;42.852;23.042;2022-10-22T07:17:01;14.90;;;5.53;;
20012;SDS011;10167;42.852;23.042;2022-10-22T07:19:30;4.30;;;3.13;;
20012;SDS011;10167;42.852;23.042;2022-10-22T07:22:00;9.77;;;3.65;;
20012;SDS011;10167;42.852;23.042;2022-10-22T07:24:28;2.22;;;2.05;;
20012;SDS011;10167;42.852;23.042;2022-10-22T07:26:57;16.85;;;2.95;;
20012;SDS011;10167;42.852;23.042;2022-10-22T07:29:26;4.35;;;3.10;;
20012;SDS011;10167;42.852;23.042;2022-10-22T07:31:55;3.58;;;2.45;;
20012;SDS011;10167;42.852;23.042;2022-10-22T07:34:26;2.88;;;2.63;;
20012;SDS011;10167;42.852;23.042;2022-10-22T07:36:54;6.05;;;3.50;;
20012;SDS011;10167;42.852;23.042;2022-10-22T07:39:25;3.63;;;2.80;;
20012;SDS011;10167;42.852;23.042;2022-10-22T07:41:55;4.05;;;2.67;;
20012;SDS011;10167;42.852;23.042;2022-10-22T07:44:23;5.20;;;3.28;;
20012;SDS011;10167;42.852;23.042;2022-10-22T07:46:52;6.72;;;3.33;;
20012;SDS011;10167;42.852;23.042;2022-10-22T07:49:21;4.35;;;2.92;;
20012;SDS011;10167;42.852;23.042;2022-10-22T07:51:51;7.05;;;3.28;;
20012;SDS011;10167;42.852;23.042;2022-10-22T07:54:20;7.50;;;2.17;;
20012;SDS011;10167;42.852;23.042;2022-10-22T07:56:49;2.38;;;2.03;;
20012;SDS011;10167;42.852;23.042;2022-10-22T07:59:19;3.53;;;1.73;;
20012;SDS011;10167;42.852;23.042;2022-10-22T08:01:48;9.13;;;2.92;;
20012;SDS011;10167;42.852;23.042;2022-10-22T08:04:18;4.50;;;2.33;;
20012;SDS011;10167;42.852;23.042;2022-10-22T08:06:46;1.70;;;1.30;;
20012;SDS011;10167;42.852;23.042;2022-10-22T08:09:17;3.80;;;2.05;;
20012;SDS011;10167;42.852;23.042;2022-10-22T08:11:46;4.82;;;2.35;;
20012;SDS011;10167;42.852;23.042;2022-10-22T08:14:15;3.45;;;2.50;;
20012;SDS011;10167;42.852;23.042;2022-10-22T08:16:44;2.85;;;2.33;;
20012;SDS011;10167;42.852;23.042;2022-10-22T08:19:13;6.50;;;2.50;;
20012;SDS011;10167;42.852;23.042;2022-10-22T08:21:45;2.50;;;1.88;;
20012;SDS011;10167;42.852;23.042;2022-10-22T08:24:14;2.22;;;1.40;;
20012;SDS011;10167;42.852;23.042;2022-10-22T08:26:45;2.72;;;2.15;;
20012;SDS011;10167;42.852;23.042;2022-10-22T08:29:15;3.22;;;2.03;;
20012;SDS011;10167;42.852;23.042;2022-10-22T08:31:48;3.90;;;2.40;;
20012;SDS011;10167;42.852;23.042;2022-10-22T08:34:17;3.15;;;1.92;;
20012;SDS011;10167;42.852;23.042;2022-10-22T08:36:45;9.70;;;1.52;;
20012;SDS011;10167;42.852;23.042;2022-10-22T08:39:14;2.30;;;2.10;;
20012;SDS011;10167;42.852;23.042;2022-10-22T08:41:45;2.83;;;2.15;;
20012;SDS011;10167;42.852;23.042;2022-10-22T08:44:23;2.00;;;1.70;;
20012;SDS011;10167;42.852;23.042;2022-10-22T08:47:05;6.07;;;2.28;;
20012;SDS011;10167;42.852;23.042;2022-10-22T08:49:48;1.50;;;1.40;;
20012;SDS011;10167;42.852;23.042;2022-10-22T08:52:17;1.98;;;1.77;;
20012;SDS011;10167;42.852;23.042;2022-10-22T08:54:49;1.67;;;1.40;;
20012;SDS011;10167;42.852;23.042;2022-10-22T08:57:24;2.55;;;2.13;;
20012;SDS011;10167;42.852;23.042;2022-10-22T08:59:59;3.05;;;2.40;;
20012;SDS011;10167;42.852;23.042;2022-10-22T09:02:34;1.42;;;1.33;;
20012;SDS011;10167;42.852;23.042;2022-10-22T09:05:11;4.85;;;1.83;;
20012;SDS011;10167;42.852;23.042;2022-10-22T09:07:43;2.80;;;1.88;;
20012;SDS011;10167;42.852;23.042;2022-10-22T09:10:17;1.63;;;1.52;;
20012;SDS011;10167;42.852;23.042;2022-10-22T09:12:46;2.00;;;1.30;;
20012;SDS011;10167;42.852;23.042;2022-10-22T09:15:18;3.20;;;2.40;;
20012;SDS011;10167;42.852;23.042;2022-10-22T09:17:54;1.95;;;1.52;;
20012;SDS011;10167;42.852;23.042;2022-10-22T09:20:26;12.00;;;2.63;;
20012;SDS011;10167;42.852;23.042;2022-10-22T09:22:57;6.53;;;2.85;;
20012;SDS011;10167;42.852;23.042;2022-10-22T09:25:30;4.95;;;1.95;;
20012;SDS011;10167;42.852;23.042;2022-10-22T09:28:01;4.32;;;2.15;;
20012;SDS011;10167;42.852;23.042;2022-10-22T09:30:32;3.25;;;2.08;;
20012;SDS011;10167;42.852;23.042;2022-10-22T09:33:06;2.15;;;1.65;;
20012;SDS011;10167;42.852;23.042;2022-10-22T09:35:47;2.38;;;1.55;;
20012;SDS011;10167;42.852;23.042;2022-10-22T09:38:18;8.20;;;2.03;;
20012;SDS011;10167;42.852;23.042;2022-10-22T09:40:48;5.28;;;1.67;;
20012;SDS011;10167;42.852;23.042;2022-10-22T09:43:18;1.52;;;1.10;;
20012;SDS011;10167;42.852;23.042;2022-10-22T09:45:55;1.75;;;1.48;;
20012;SDS011;10167;42.852;23.042;2022-10-22T09:48:27;3.67;;;1.40;;
20012;SDS011;10167;42.852;23.042;2022-10-22T09:50:58;4.50;;;1.55;;
20012;SDS011;10167;42.852;23.042;2022-10-22T09:53:28;3.63;;;2.35;;
20012;SDS011;10167;42.852;23.042;2022-10-22T09:55:58;5.25;;;2.38;;
20012;SDS011;10167;42.852;23.042;2022-10-22T09:58:27;2.10;;;1.58;;
20012;SDS011;10167;42.852;23.042;2022-10-22T10:00:59;3.95;;;1.92;;
20012;SDS011;10167;42.852;23.042;2022-10-22T10:03:30;2.20;;;1.35;;
20012;SDS011;10167;42.852;23.042;2022-10-22T10:06:00;1.38;;;1.15;;
20012;SDS011;10167;42.852;23.042;2022-10-22T10:08:32;2.35;;;1.60;;
20012;SDS011;10167;42.852;23.042;2022-10-22T10:11:03;3.40;;;1.73;;
20012;SDS011;10167;42.852;23.042;2022-10-22T10:13:39;1.27;;;1.13;;
20012;SDS011;10167;42.852;23.042;2022-10-22T10:16:12;1.48;;;1.38;;
20012;SDS011;10167;42.852;23.042;2022-10-22T10:18:49;2.10;;;1.60;;
20012;SDS011;10167;42.852;23.042;2022-10-22T10:21:24;1.10;;;0.80;;
20012;SDS011;10167;42.852;23.042;2022-10-22T10:23:55;1.50;;;1.40;;
20012;SDS011;10167;42.852;23.042;2022-10-22T10:26:26;3.45;;;1.17;;
20012;SDS011;10167;42.852;23.042;2022-10-22T10:29:03;1.25;;;1.10;;
20012;SDS011;10167;42.852;23.042;2022-10-22T10:31:40;2.08;;;1.65;;
20012;SDS011;10167;42.852;23.042;2022-10-22T10:34:13;0.82;;;0.77;;
20012;SDS011;10167;42.852;23.042;2022-10-22T10:36:48;3.22;;;1.20;;
20012;SDS011;10167;42.852;23.042;2022-10-22T10:41:50;3.45;;;1.05;;
20012;SDS011;10167;42.852;23.042;2022-10-22T10:44:35;5.55;;;2.08;;
20012;SDS011;10167;42.852;23.042;2022-10-22T10:47:14;2.58;;;1.77;;
20012;SDS011;10167;42.852;23.042;2022-10-22T10:49:45;1.77;;;1.20;;
20012;SDS011;10167;42.852;23.042;2022-10-22T10:52:15;7.40;;;1.10;;
20012;SDS011;10167;42.852;23.042;2022-10-22T10:54:50;2.15;;;1.33;;
20012;SDS011;10167;42.852;23.042;2022-10-22T10:57:24;1.65;;;1.35;;
20012;SDS011;10167;42.852;23.042;2022-10-22T11:00:03;1.48;;;1.38;;
20012;SDS011;10167;42.852;23.042;2022-10-22T11:05:29;1.02;;;0.88;;
20012;SDS011;10167;42.852;23.042;2022-10-22T11:07:59;1.33;;;1.15;;
20012;SDS011;10167;42.852;23.042;2022-10-22T11:10:29;1.27;;;1.17;;
20012;SDS011;10167;42.852;23.042;2022-10-22T11:13:01;1.25;;;1.02;;
20012;SDS011;10167;42.852;23.042;2022-10-22T11:15:31;3.70;;;1.10;;
20012;SDS011;10167;42.852;23.042;2022-10-22T11:18:02;2.22;;;1.35;;
20012;SDS011;10167;42.852;23.042;2022-10-22T11:20:40;11.20;;;1.65;;
20012;SDS011;10167;42.852;23.042;2022-10-22T11:23:23;4.15;;;2.25;;
20012;SDS011;10167;42.852;23.042;2022-10-22T11:25:53;1.80;;;0.98;;
20012;SDS011;10167;42.852;23.042;2022-10-22T11:28:23;0.70;;;0.70;;
20012;SDS011;10167;42.852;23.042;2022-10-22T11:30:57;1.88;;;1.35;;
20012;SDS011;10167;42.852;23.042;2022-10-22T11:33:29;1.25;;;1.00;;
20012;SDS011;10167;42.852;23.042;2022-10-22T11:36:02;21.63;;;2.45;;
20012;SDS011;10167;42.852;23.042;2022-10-22T11:38:32;1.70;;;0.95;;
20012;SDS011;10167;42.852;23.042;2022-10-22T11:41:04;0.90;;;0.90;;
20012;SDS011;10167;42.852;23.042;2022-10-22T11:43:50;1.15;;;1.00;;
20012;SDS011;10167;42.852;23.042;2022-10-22T11:46:26;1.45;;;1.35;;
20012;SDS011;10167;42.852;23.042;2022-10-22T11:49:04;4.00;;;1.45;;
20012;SDS011;10167;42.852;23.042;2022-10-22T11:51:36;0.82;;;0.73;;
20012;SDS011;10167;42.852;23.042;2022-10-22T11:54:25;1.10;;;0.98;;
20012;SDS011;10167;42.852;23.042;2022-10-22T11:56:57;1.10;;;1.00;;
20012;SDS011;10167;42.852;23.042;2022-10-22T11:59:33;0.65;;;0.60;;
20012;SDS011;10167;42.852;23.042;2022-10-22T12:02:19;2.80;;;1.60;;
20012;SDS011;10167;42.852;23.042;2022-10-22T12:04:50;1.40;;;1.30;;
20012;SDS011;10167;42.852;23.042;2022-10-22T12:07:31;2.90;;;1.10;;
20012;SDS011;10167;42.852;23.042;2022-10-22T12:10:03;1.85;;;1.08;;
20012;SDS011;10167;42.852;23.042;2022-10-22T12:12:34;2.55;;;1.70;;
20012;SDS011;10167;42.852;23.042;2022-10-22T12:15:19;0.93;;;0.93;;
20012;SDS011;10167;42.852;23.042;2022-10-22T12:17:48;3.10;;;1.38;;
20012;SDS011;10167;42.852;23.042;2022-10-22T12:20:17;2.22;;;1.70;;
20012;SDS011;10167;42.852;23.042;2022-10-22T12:22:47;1.30;;;1.20;;
20012;SDS011;10167;42.852;23.042;2022-10-22T12:25:18;1.17;;;1.08;;
20012;SDS011;10167;42.852;23.042;2022-10-22T12:27:49;1.65;;;1.27;;
20012;SDS011;10167;42.852;23.042;2022-10-22T12:30:23;1.30;;;1.20;;
20012;SDS011;10167;42.852;23.042;2022-10-22T12:32:53;3.53;;;1.90;;
20012;SDS011;10167;42.852;23.042;2022-10-22T12:35:23;1.08;;;0.95;;
20012;SDS011;10167;42.852;23.042;2022-10-22T12:37:55;2.72;;;1.90;;
20012;SDS011;10167;42.852;23.042;2022-10-22T12:40:24;1.05;;;0.98;;
20012;SDS011;10167;42.852;23.042;2022-10-22T12:42:54;1.80;;;1.48;;
20012;SDS011;10167;42.852;23.042;2022-10-22T12:45:24;5.57;;;2.42;;
20012;SDS011;10167;42.852;23.042;2022-10-22T12:47:55;2.05;;;1.45;;
20012;SDS011;10167;42.852;23.042;2022-10-22T12:50:28;4.85;;;1.50;;
20012;SDS011;10167;42.852;23.042;2022-10-22T12:53:00;1.55;;;0.95;;
20012;SDS011;10167;42.852;23.042;2022-10-22T12:55:29;1.50;;;0.82;;
20012;SDS011;10167;42.852;23.042;2022-10-22T12:57:59;2.88;;;2.25;;
20012;SDS011;10167;42.852;23.042;2022-10-22T13:00:33;1.90;;;1.80;;
20012;SDS011;10167;42.852;23.042;2022-10-22T13:03:04;0.90;;;0.90;;
20012;SDS011;10167;42.852;23.042;2022-10-22T13:05:34;1.25;;;1.15;;
20012;SDS011;10167;42.852;23.042;2022-10-22T13:08:08;1.48;;;1.30;;
20012;SDS011;10167;42.852;23.042;2022-10-22T13:10:38;1.70;;;1.60;;
20012;SDS011;10167;42.852;23.042;2022-10-22T13:15:51;2.13;;;1.77;;
20012;SDS011;10167;42.852;23.042;2022-10-22T13:18:20;1.35;;;1.25;;
20012;SDS011;10167;42.852;23.042;2022-10-22T13:20:53;1.33;;;1.15;;
20012;SDS011;10167;42.852;23.042;2022-10-22T13:25:57;2.08;;;1.88;;
20012;SDS011;10167;42.852;23.042;2022-10-22T13:28:26;3.13;;;0.90;;
20012;SDS011;10167;42.852;23.042;2022-10-22T13:30:56;2.42;;;1.52;;
20012;SDS011;10167;42.852;23.042;2022-10-22T13:33:28;1.05;;;1.02;;
20012;SDS011;10167;42.852;23.042;2022-10-22T13:35:57;1.83;;;1.70;;
20012;SDS011;10167;42.852;23.042;2022-10-22T13:38:27;7.60;;;2.78;;
20012;SDS011;10167;42.852;23.042;2022-10-22T13:40:57;0.73;;;0.73;;
20012;SDS011;10167;42.852;23.042;2022-10-22T13:43:27;3.60;;;2.17;;
20012;SDS011;10167;42.852;23.042;2022-10-22T13:45:56;1.33;;;0.90;;
20012;SDS011;10167;42.852;23.042;2022-10-22T13:48:26;4.88;;;1.92;;
20012;SDS011;10167;42.852;23.042;2022-10-22T13:50:55;1.52;;;1.40;;
20012;SDS011;10167;42.852;23.042;2022-10-22T13:53:24;1.88;;;1.48;;
20012;SDS011;10167;42.852;23.042;2022-10-22T13:55:54;3.25;;;1.58;;
20012;SDS011;10167;42.852;23.042;2022-10-22T13:58:24;3.60;;;1.92;;
20012;SDS011;10167;42.852;23.042;2022-10-22T14:00:54;2.58;;;1.73;;
20012;SDS011;10167;42.852;23.042;2022-10-22T14:03:24;2.30;;;1.38;;
20012;SDS011;10167;42.852;23.042;2022-10-22T14:05:55;3.70;;;1.95;;
20012;SDS011;10167;42.852;23.042;2022-10-22T14:08:26;2.67;;;1.55;;
20012;SDS011;10167;42.852;23.042;2022-10-22T14:10:56;1.38;;;1.17;;
20012;SDS011;10167;42.852;23.042;2022-10-22T14:13:27;1.85;;;1.15;;
20012;SDS011;10167;42.852;23.042;2022-10-22T14:15:56;4.10;;;1.40;;
20012;SDS011;10167;42.852;23.042;2022-10-22T14:18:26;2.15;;;1.35;;
20012;SDS011;10167;42.852;23.042;2022-10-22T14:20:58;9.27;;;2.53;;
20012;SDS011;10167;42.852;23.042;2022-10-22T14:23:29;0.82;;;0.82;;
20012;SDS011;10167;42.852;23.042;2022-10-22T14:26:00;2.35;;;1.02;;
20012;SDS011;10167;42.852;23.042;2022-10-22T14:28:31;1.77;;;1.23;;
20012;SDS011;10167;42.852;23.042;2022-10-22T14:31:13;2.63;;;1.67;;
20012;SDS011;10167;42.852;23.042;2022-10-22T14:33:43;4.28;;;2.10;;
20012;SDS011;10167;42.852;23.042;2022-10-22T14:36:14;1.27;;;0.98;;
20012;SDS011;10167;42.852;23.042;2022-10-22T14:38:47;4.72;;;2.55;;
20012;SDS011;10167;42.852;23.042;2022-10-22T14:41:18;1.00;;;0.98;;
20012;SDS011;10167;42.852;23.042;2022-10-22T14:43:49;2.67;;;2.00;;
20012;SDS011;10167;42.852;23.042;2022-10-22T14:46:18;1.40;;;1.30;;
20012;SDS011;10167;42.852;23.042;2022-10-22T14:48:47;1.98;;;1.60;;
20012;SDS011;10167;42.852;23.042;2022-10-22T14:51:17;3.92;;;1.80;;
20012;SDS011;10167;42.852;23.042;2022-10-22T14:53:47;5.55;;;1.83;;
20012;SDS011;10167;42.852;23.042;2022-10-22T14:56:16;8.55;;;2.33;;
20012;SDS011;10167;42.852;23.042;2022-10-22T14:58:49;6.22;;;3.05;;
20012;SDS011;10167;42.852;23.042;2022-10-22T15:01:18;6.25;;;3.00;;
20012;SDS011;10167;42.852;23.042;2022-10-22T15:03:46;11.48;;;4.63;;
20012;SDS011;10167;42.852;23.042;2022-10-22T15:06:16;23.15;;;3.97;;